createdAt,value
2019-02-23T00:00:08.640Z,99715.34
2019-02-23T00:02:35.498Z,99713.66
2019-02-23T00:05:02.210Z,99717.27
2019-02-23T00:07:29.060Z,99719.25
2019-02-23T00:09:55.886Z,99714.91
2019-02-23T00:12:22.557Z,99714.06
2019-02-23T00:14:49.264Z,99715.70
2019-02-23T00:17:16.086Z,99710.52
2019-02-23T00:19:42.989Z,99718.33
2019-02-23T00:22:09.716Z,99716.84
2019-02-23T00:24:36.589Z,99714.48
2019-02-23T00:27:03.381Z,99712.95
2019-02-23T00:29:30.194Z,99724.60
2019-02-23T00:31:57.026Z,99721.43
2019-02-23T00:34:23.836Z,99725.73
2019-02-23T00:36:50.603Z,99734.22
2019-02-23T00:39:17.469Z,99736.00
2019-02-23T00:41:44.258Z,99741.48
2019-02-23T00:44:11.063Z,99748.80
2019-02-23T00:46:37.942Z,99755.26
2019-02-23T00:49:04.565Z,99755.06
2019-02-23T00:51:31.250Z,99761.88
2019-02-23T00:53:58.044Z,99758.17
2019-02-23T00:56:24.740Z,99757.17
2019-02-23T00:58:51.527Z,99752.47
2019-02-23T01:01:18.203Z,99764.13
2019-02-23T01:03:45.130Z,99758.64
2019-02-23T01:06:11.827Z,99751.44
2019-02-23T01:08:38.654Z,99753.91
2019-02-23T01:11:05.338Z,99756.86
2019-02-23T01:13:32.022Z,99761.01
2019-02-23T01:15:59.933Z,99766.83
2019-02-23T01:18:26.601Z,99768.86
2019-02-23T01:20:53.174Z,99772.16
2019-02-23T01:23:19.951Z,99773.34
2019-02-23T01:25:46.651Z,99769.15
2019-02-23T01:28:13.365Z,99762.92
2019-02-23T01:30:40.184Z,99768.40
2019-02-23T01:33:07.052Z,99763.91
2019-02-23T01:35:33.759Z,99762.23
2019-02-23T01:38:00.613Z,99761.05
2019-02-23T01:40:27.348Z,99761.34
2019-02-23T01:42:54.149Z,99761.17
2019-02-23T01:45:20.925Z,99764.13
2019-02-23T01:47:47.722Z,99769.11
2019-02-23T01:50:14.614Z,99762.88
2019-02-23T01:52:41.381Z,99764.50
2019-02-23T01:55:08.335Z,99762.13
2019-02-23T01:57:35.113Z,99762.42
2019-02-23T02:00:02.308Z,99766.55
2019-02-23T02:02:29.037Z,99772.17
2019-02-23T02:04:55.864Z,99768.98
2019-02-23T02:07:22.660Z,99773.62
2019-02-23T02:09:49.435Z,99774.74
2019-02-23T02:12:16.666Z,99768.38
2019-02-23T02:14:43.368Z,99764.17
2019-02-23T02:17:10.073Z,99770.63
2019-02-23T02:19:36.874Z,99769.44
2019-02-23T02:22:03.602Z,99766.28
2019-02-23T02:24:30.576Z,99764.61
2019-02-23T02:26:57.254Z,99767.27
2019-02-23T02:29:24.312Z,99767.55
2019-02-23T02:31:51.133Z,99769.52
2019-02-23T02:34:17.916Z,99763.15
2019-02-23T02:36:45.010Z,99769.98
2019-02-23T02:39:12.760Z,99763.81
2019-02-23T02:41:39.714Z,99771.10
2019-02-23T02:44:06.518Z,99776.92
2019-02-23T02:46:33.165Z,99770.76
2019-02-23T02:49:00.026Z,99774.40
2019-02-23T02:51:26.698Z,99777.34
2019-02-23T02:53:57.090Z,99773.21
2019-02-23T02:56:23.756Z,99783.22
2019-02-23T02:58:50.597Z,99792.68
2019-02-23T03:01:17.470Z,99792.33
2019-02-23T03:03:45.396Z,99796.12
2019-02-23T03:06:12.180Z,99803.12
2019-02-23T03:08:39.002Z,99810.27
2019-02-23T03:11:05.796Z,99803.26
2019-02-23T03:13:32.590Z,99806.06
2019-02-23T03:15:59.447Z,99804.80
2019-02-23T03:18:26.343Z,99790.23
2019-02-23T03:20:53.290Z,99792.55
2019-02-23T03:23:20.069Z,99798.84
2019-02-23T03:25:46.784Z,99799.97
2019-02-23T03:28:13.624Z,99802.42
2019-02-23T03:30:40.441Z,99799.55
2019-02-23T03:33:07.335Z,99797.59
2019-02-23T03:35:34.122Z,99789.89
2019-02-23T03:38:01.110Z,99785.55
2019-02-23T03:40:27.940Z,99778.55
2019-02-23T03:42:54.747Z,99776.34
2019-02-23T03:45:21.596Z,99778.80
2019-02-23T03:47:48.447Z,99779.91
2019-02-23T03:50:15.430Z,99783.62
2019-02-23T03:52:42.130Z,99785.23
2019-02-23T03:55:09.074Z,99775.71
2019-02-23T03:57:35.936Z,99780.33
2019-02-23T04:00:02.951Z,99784.46
2019-02-23T04:02:29.809Z,99781.23
2019-02-23T04:04:56.518Z,99779.70
2019-02-23T04:07:23.318Z,99782.98
2019-02-23T04:09:50.150Z,99783.48
2019-02-23T04:12:16.968Z,99777.63
2019-02-23T04:14:43.840Z,99774.61
2019-02-23T04:17:10.688Z,99777.41
2019-02-23T04:19:37.471Z,99770.55
2019-02-23T04:22:04.300Z,99768.52
2019-02-23T04:24:31.213Z,99781.25
2019-02-23T04:27:01.273Z,99777.75
2019-02-23T04:29:28.251Z,99786.01
2019-02-23T04:31:55.072Z,99784.95
2019-02-23T04:34:21.968Z,99798.03
2019-02-23T04:36:48.784Z,99803.21
2019-02-23T04:39:15.522Z,99801.67
2019-02-23T04:41:42.274Z,99795.86
2019-02-23T04:44:09.131Z,99789.49
2019-02-23T04:46:36.397Z,99788.65
2019-02-23T04:49:03.249Z,99788.33
2019-02-23T04:51:30.086Z,99784.97
2019-02-23T04:53:56.778Z,99785.11
2019-02-23T04:56:23.611Z,99775.23
2019-02-23T04:58:50.464Z,99782.02
2019-02-23T05:01:17.279Z,99787.47
2019-02-23T05:03:44.192Z,99789.07
2019-02-23T05:06:10.898Z,99788.02
2019-02-23T05:08:37.894Z,99782.34
2019-02-23T05:11:04.591Z,99771.58
2019-02-23T05:13:31.289Z,99783.54
2019-02-23T05:15:58.158Z,99775.56
2019-02-23T05:18:24.751Z,99777.25
2019-02-23T05:20:51.796Z,99772.28
2019-02-23T05:23:18.607Z,99772.42
2019-02-23T05:25:46.465Z,99770.88
2019-02-23T05:28:13.469Z,99775.35
2019-02-23T05:30:40.485Z,99773.67
2019-02-23T05:33:07.362Z,99781.78
2019-02-23T05:35:34.183Z,99786.61
2019-02-23T05:38:01.114Z,99787.02
2019-02-23T05:40:27.851Z,99777.04
2019-02-23T05:43:01.081Z,99784.36
2019-02-23T05:45:23.451Z,99788.29
2019-02-23T05:47:50.385Z,99787.94
2019-02-23T05:50:17.243Z,99796.05
2019-02-23T05:52:44.164Z,99791.48
2019-02-23T05:55:10.970Z,99793.92
2019-02-23T05:57:37.895Z,99790.43
2019-02-23T06:00:05.957Z,99793.09
2019-02-23T06:02:34.832Z,99793.00
2019-02-23T06:05:01.701Z,99797.13
2019-02-23T06:07:28.583Z,99798.58
2019-02-23T06:09:55.434Z,99811.16
2019-02-23T06:12:22.233Z,99797.52
2019-02-23T06:14:48.991Z,99798.50
2019-02-23T06:17:15.887Z,99811.42
2019-02-23T06:19:43.755Z,99813.54
2019-02-23T06:22:10.468Z,99817.66
2019-02-23T06:24:37.308Z,99831.29
2019-02-23T06:27:06.215Z,99822.34
2019-02-23T06:29:33.563Z,99803.94
2019-02-23T06:32:00.390Z,99786.67
2019-02-23T06:34:27.177Z,99775.30
2019-02-23T06:36:54.070Z,99771.05
2019-02-23T06:39:20.872Z,99775.69
2019-02-23T06:41:47.678Z,99780.54
2019-02-23T06:44:14.481Z,99776.55
2019-02-23T06:46:41.481Z,99787.96
2019-02-23T06:49:08.264Z,99781.83
2019-02-23T06:51:35.104Z,99791.11
2019-02-23T06:54:01.930Z,99795.89
2019-02-23T06:56:28.613Z,99796.08
2019-02-23T06:58:55.555Z,99802.17
2019-02-23T07:01:22.260Z,99808.59
2019-02-23T07:03:49.001Z,99809.28
2019-02-23T07:06:15.892Z,99812.47
2019-02-23T07:08:43.043Z,99816.30
2019-02-23T07:11:09.887Z,99809.17
2019-02-23T07:13:36.729Z,99803.24
2019-02-23T07:16:03.517Z,99811.64
2019-02-23T07:18:30.316Z,99825.64
2019-02-23T07:20:57.240Z,99835.63
2019-02-23T07:23:24.043Z,99848.50
2019-02-23T07:25:50.868Z,99844.89
2019-02-23T07:28:17.800Z,99852.36
2019-02-23T07:30:44.681Z,99861.20
2019-02-23T07:33:11.552Z,99870.85
2019-02-23T07:35:38.449Z,99860.41
2019-02-23T07:38:05.492Z,99839.19
2019-02-23T07:40:32.171Z,99836.06
2019-02-23T07:42:59.205Z,99837.62
2019-02-23T07:45:25.893Z,99832.17
2019-02-23T07:47:52.760Z,99841.37
2019-02-23T07:50:19.572Z,99834.73
2019-02-23T07:52:46.341Z,99834.77
2019-02-23T07:55:13.169Z,99848.03
2019-02-23T07:57:39.976Z,99850.73
2019-02-23T08:00:07.476Z,99841.27
2019-02-23T08:02:34.352Z,99829.92
2019-02-23T08:05:01.312Z,99828.48
2019-02-23T08:07:28.179Z,99828.38
2019-02-23T08:09:54.949Z,99823.58
2019-02-23T08:12:22.284Z,99824.17
2019-02-23T08:14:49.222Z,99832.87
2019-02-23T08:17:16.526Z,99839.23
2019-02-23T08:19:44.048Z,99842.80
2019-02-23T08:22:10.737Z,99838.64
2019-02-23T08:24:37.694Z,99851.06
2019-02-23T08:27:04.618Z,99858.63
2019-02-23T08:29:31.691Z,99864.19
2019-02-23T08:31:58.566Z,99870.58
2019-02-23T08:34:25.478Z,99857.72
2019-02-23T08:36:52.198Z,99859.22
2019-02-23T08:39:18.939Z,99857.19
2019-02-23T08:41:45.649Z,99862.67
2019-02-23T08:44:12.480Z,99856.37
2019-02-23T08:46:39.296Z,99858.67
2019-02-23T08:49:05.996Z,99862.69
2019-02-23T08:51:32.941Z,99860.44
2019-02-23T08:53:59.792Z,99870.39
2019-02-23T08:56:26.735Z,99863.45
2019-02-23T08:58:53.482Z,99869.97
2019-02-23T09:01:20.224Z,99871.01
2019-02-23T09:03:49.770Z,99860.25
2019-02-23T09:06:16.976Z,99866.78
2019-02-23T09:08:43.763Z,99856.87
2019-02-23T09:11:10.795Z,99849.37
2019-02-23T09:13:37.721Z,99857.65
2019-02-23T09:16:05.731Z,99855.38
2019-02-23T09:18:32.411Z,99864.81
2019-02-23T09:20:59.253Z,99861.04
2019-02-23T09:23:26.246Z,99859.22
2019-02-23T09:25:53.172Z,99854.19
2019-02-23T09:28:23.000Z,99854.22
2019-02-23T09:30:50.364Z,99842.73
2019-02-23T09:33:17.916Z,99827.59
2019-02-23T09:35:44.712Z,99827.38
2019-02-23T09:38:11.522Z,99826.80
2019-02-23T09:40:38.454Z,99835.45
2019-02-23T09:43:05.285Z,99842.75
2019-02-23T09:45:32.095Z,99848.22
2019-02-23T09:47:59.300Z,99846.66
2019-02-23T09:50:26.000Z,99846.92
2019-02-23T09:52:52.771Z,99845.67
2019-02-23T09:55:19.456Z,99858.16
2019-02-23T09:57:46.299Z,99859.53
2019-02-23T10:00:14.064Z,99854.13
2019-02-23T10:02:41.166Z,99856.48
2019-02-23T10:05:08.747Z,99858.36
2019-02-23T10:07:37.852Z,99857.33
2019-02-23T10:10:05.266Z,99857.73
2019-02-23T10:12:32.131Z,99859.52
2019-02-23T10:14:58.971Z,99870.38
2019-02-23T10:17:25.968Z,99865.52
2019-02-23T10:19:52.785Z,99865.33
2019-02-23T10:22:19.629Z,99870.03
2019-02-23T10:24:46.478Z,99869.63
2019-02-23T10:27:13.339Z,99863.83
2019-02-23T10:29:40.286Z,99871.42
2019-02-23T10:32:07.178Z,99868.33
2019-02-23T10:34:33.876Z,99876.09
2019-02-23T10:37:00.738Z,99871.53
2019-02-23T10:39:27.589Z,99861.75
2019-02-23T10:41:54.342Z,99854.82
2019-02-23T10:44:27.635Z,99844.77
2019-02-23T10:46:54.603Z,99836.60
2019-02-23T10:49:53.978Z,99844.20
2019-02-23T10:52:21.259Z,99844.32
2019-02-23T10:54:48.079Z,99829.70
2019-02-23T10:57:14.700Z,99828.03
2019-02-23T10:59:41.418Z,99822.39
2019-02-23T11:02:08.542Z,99813.05
2019-02-23T11:04:35.423Z,99816.02
2019-02-23T11:07:02.264Z,99798.47
2019-02-23T11:09:35.089Z,99791.97
2019-02-23T11:12:09.574Z,99790.17
2019-02-23T11:14:36.354Z,99793.83
2019-02-23T11:17:03.319Z,99799.52
2019-02-23T11:19:30.256Z,99796.21
2019-02-23T11:21:58.145Z,99791.48
2019-02-23T11:24:25.172Z,99798.70
2019-02-23T11:26:52.154Z,99804.80
2019-02-23T11:29:19.147Z,99803.62
2019-02-23T11:31:45.940Z,99801.89
2019-02-23T11:34:12.836Z,99795.94
2019-02-23T11:36:39.790Z,99791.07
2019-02-23T11:39:07.629Z,99784.97
2019-02-23T11:41:35.338Z,99784.48
2019-02-23T11:44:04.737Z,99789.08
2019-02-23T11:46:31.905Z,99794.09
2019-02-23T11:49:00.161Z,99798.84
2019-02-23T11:51:29.812Z,99793.52
2019-02-23T11:53:56.906Z,99795.33
2019-02-23T11:56:27.131Z,99782.00
2019-02-23T11:58:54.349Z,99768.69
2019-02-23T12:01:21.751Z,99762.38
2019-02-23T12:03:49.606Z,99759.66
2019-02-23T12:06:17.292Z,99758.88
2019-02-23T12:08:44.515Z,99745.05
2019-02-23T12:11:11.455Z,99738.09
2019-02-23T12:13:38.512Z,99729.20
2019-02-23T12:16:05.905Z,99730.14
2019-02-23T12:18:36.298Z,99723.17
2019-02-23T12:21:23.504Z,99726.82
2019-02-23T12:23:51.497Z,99733.19
2019-02-23T12:26:20.324Z,99729.41
2019-02-23T12:28:47.659Z,99733.64
2019-02-23T12:31:14.687Z,99727.89
2019-02-23T12:33:42.286Z,99718.31
2019-02-23T12:36:10.112Z,99721.44
2019-02-23T12:38:37.073Z,99715.68
2019-02-23T12:41:04.210Z,99731.25
2019-02-23T12:43:31.166Z,99732.13
2019-02-23T12:46:00.048Z,99725.20
2019-02-23T12:48:27.134Z,99731.23
2019-02-23T12:50:54.545Z,99728.13
2019-02-23T12:53:22.148Z,99731.88
2019-02-23T12:55:49.609Z,99716.02
2019-02-23T12:58:16.847Z,99708.66
2019-02-23T13:00:44.128Z,99705.84
2019-02-23T13:03:11.531Z,99715.88
2019-02-23T13:05:38.613Z,99718.98
2019-02-23T13:08:08.534Z,99709.03
2019-02-23T13:10:36.159Z,99704.45
2019-02-23T13:13:34.701Z,99702.15
2019-02-23T13:16:21.530Z,99693.17
2019-02-23T13:19:31.738Z,99697.17
2019-02-23T13:22:44.702Z,99701.11
2019-02-23T13:26:07.695Z,99704.22
2019-02-23T13:29:01.430Z,99706.72
2019-02-23T13:32:01.564Z,99708.89
2019-02-23T13:35:14.858Z,99694.02
2019-02-23T13:38:28.618Z,99684.73
2019-02-23T13:41:46.959Z,99686.59
2019-02-23T13:44:56.828Z,99674.00
2019-02-23T13:48:14.004Z,99676.73
2019-02-23T13:51:12.500Z,99663.38
2019-02-23T13:54:10.711Z,99657.55
2019-02-23T13:57:12.373Z,99649.03
2019-02-23T14:00:03.002Z,99648.42
2019-02-23T14:03:23.257Z,99649.94
2019-02-23T14:06:17.059Z,99633.06
2019-02-23T14:09:24.993Z,99625.34
2019-02-23T14:12:27.356Z,99626.84
2019-02-23T14:15:20.093Z,99626.58
2019-02-23T14:18:13.969Z,99629.67
2019-02-23T14:21:19.620Z,99645.28
2019-02-23T14:24:50.190Z,99649.97
2019-02-23T14:28:24.116Z,99654.95
2019-02-23T14:31:34.281Z,99651.11
2019-02-23T14:34:14.711Z,99638.51
2019-02-23T14:37:08.134Z,99631.22
2019-02-23T14:40:09.526Z,99631.28
2019-02-23T14:42:49.082Z,99628.20
2019-02-23T14:45:52.452Z,99628.61
2019-02-23T14:48:51.247Z,99626.65
2019-02-23T14:52:01.815Z,99634.14
2019-02-23T14:55:08.548Z,99630.59
2019-02-23T14:58:32.589Z,99637.48
2019-02-23T15:01:26.912Z,99623.48
2019-02-23T15:04:33.201Z,99620.84
2019-02-23T15:07:28.338Z,99602.55
2019-02-23T15:10:33.211Z,99615.15
2019-02-23T15:13:36.198Z,99617.77
2019-02-23T15:16:39.236Z,99614.63
2019-02-23T15:19:34.258Z,99615.78
2019-02-23T15:23:04.340Z,99601.00
2019-02-23T15:25:49.144Z,99597.14
2019-02-23T15:28:38.604Z,99592.65
2019-02-23T15:31:34.700Z,99584.25
2019-02-23T15:34:42.813Z,99591.55
2019-02-23T15:37:37.767Z,99592.59
2019-02-23T15:40:42.708Z,99600.22
2019-02-23T15:43:49.000Z,99592.80
2019-02-23T15:46:44.157Z,99593.28
2019-02-23T15:49:33.545Z,99592.92
2019-02-23T15:52:01.999Z,99603.70
2019-02-23T15:54:29.304Z,99610.66
2019-02-23T15:56:56.140Z,99598.17
2019-02-23T15:59:22.914Z,99602.28
2019-02-23T16:01:49.716Z,99603.11
2019-02-23T16:04:16.367Z,99604.83
2019-02-23T16:06:43.171Z,99606.19
2019-02-23T16:09:09.995Z,99610.91
2019-02-23T16:11:36.738Z,99606.41
2019-02-23T16:14:03.546Z,99618.80
2019-02-23T16:16:30.617Z,99624.58
2019-02-23T16:18:57.368Z,99623.17
2019-02-23T16:21:24.242Z,99624.66
2019-02-23T16:23:50.796Z,99628.77
2019-02-23T16:26:18.638Z,99624.53
2019-02-23T16:28:45.280Z,99622.81
2019-02-23T16:31:12.100Z,99618.91
2019-02-23T16:33:38.879Z,99626.00
2019-02-23T16:36:05.558Z,99628.77
2019-02-23T16:38:32.397Z,99630.69
2019-02-23T16:40:59.057Z,99628.89
2019-02-23T16:43:26.118Z,99626.25
2019-02-23T16:45:52.811Z,99618.13
2019-02-23T16:48:19.558Z,99632.08
2019-02-23T16:50:46.518Z,99631.78
2019-02-23T16:53:13.406Z,99631.17
2019-02-23T16:55:50.597Z,99625.69
2019-02-23T16:58:09.074Z,99634.13
2019-02-23T17:00:36.054Z,99626.77
2019-02-23T17:03:02.905Z,99635.50
2019-02-23T17:05:29.674Z,99635.55
2019-02-23T17:07:56.344Z,99635.23
2019-02-23T17:10:23.147Z,99638.25
2019-02-23T17:12:49.875Z,99635.45
2019-02-23T17:15:16.892Z,99645.66
2019-02-23T17:17:43.673Z,99642.31
2019-02-23T17:20:11.120Z,99648.53
2019-02-23T17:22:38.177Z,99646.52
2019-02-23T17:25:04.969Z,99648.83
2019-02-23T17:27:36.235Z,99646.48
2019-02-23T17:30:00.582Z,99646.02
2019-02-23T17:32:27.578Z,99649.70
2019-02-23T17:34:54.391Z,99647.34
2019-02-23T17:37:21.170Z,99649.01
2019-02-23T17:39:48.938Z,99646.19
2019-02-23T17:42:27.357Z,99652.69
2019-02-23T17:44:44.294Z,99650.84
2019-02-23T17:47:11.014Z,99647.52
2019-02-23T17:49:37.793Z,99645.99
2019-02-23T17:52:04.569Z,99648.30
2019-02-23T17:54:31.452Z,99653.80
2019-02-23T17:56:58.278Z,99653.80
2019-02-23T17:59:25.163Z,99655.95
2019-02-23T18:01:51.915Z,99659.27
2019-02-23T18:04:18.576Z,99659.56
2019-02-23T18:06:46.575Z,99653.23
2019-02-23T18:09:13.379Z,99659.39
2019-02-23T18:11:40.136Z,99655.19
2019-02-23T18:14:06.939Z,99657.16
2019-02-23T18:16:33.681Z,99646.61
2019-02-23T18:19:00.760Z,99640.94
2019-02-23T18:21:27.535Z,99645.11
2019-02-23T18:23:54.387Z,99646.26
2019-02-23T18:26:21.471Z,99641.05
2019-02-23T18:28:48.473Z,99645.72
2019-02-23T18:31:15.391Z,99651.37
2019-02-23T18:33:42.059Z,99655.53
2019-02-23T18:36:08.889Z,99659.84
2019-02-23T18:38:35.711Z,99661.34
2019-02-23T18:41:02.527Z,99665.69
2019-02-23T18:43:29.388Z,99660.51
2019-02-23T18:45:56.156Z,99663.15
2019-02-23T18:48:23.140Z,99659.11
2019-02-23T18:50:50.001Z,99658.31
2019-02-23T18:53:16.713Z,99660.77
2019-02-23T18:55:44.593Z,99651.73
2019-02-23T18:58:11.480Z,99654.38
2019-02-23T19:00:38.363Z,99658.84
2019-02-23T19:03:05.202Z,99659.34
2019-02-23T19:05:32.071Z,99655.17
2019-02-23T19:07:58.927Z,99651.67
2019-02-23T19:10:26.022Z,99649.69
2019-02-23T19:12:52.859Z,99644.66
2019-02-23T19:15:19.556Z,99640.66
2019-02-23T19:17:46.234Z,99642.98
2019-02-23T19:20:13.773Z,99642.30
2019-02-23T19:22:40.569Z,99641.96
2019-02-23T19:25:08.064Z,99637.43
2019-02-23T19:27:35.923Z,99635.41
2019-02-23T19:30:03.222Z,99631.91
2019-02-23T19:32:29.935Z,99628.06
2019-02-23T19:34:56.748Z,99637.05
2019-02-23T19:37:23.414Z,99638.36
2019-02-23T19:39:50.339Z,99646.82
2019-02-23T19:42:17.169Z,99650.63
2019-02-23T19:44:43.967Z,99648.77
2019-02-23T19:47:16.447Z,99648.38
2019-02-23T19:49:43.301Z,99649.87
2019-02-23T19:52:10.189Z,99648.16
2019-02-23T19:54:36.985Z,99653.61
2019-02-23T19:57:04.849Z,99664.75
2019-02-23T19:59:31.764Z,99660.86
2019-02-23T20:01:59.578Z,99659.15
2019-02-23T20:04:27.446Z,99661.77
2019-02-23T20:06:54.240Z,99661.23
2019-02-23T20:09:21.007Z,99658.37
2019-02-23T20:11:47.827Z,99662.70
2019-02-23T20:14:14.552Z,99669.81
2019-02-23T20:16:41.587Z,99676.62
2019-02-23T20:19:08.325Z,99671.84
2019-02-23T20:21:35.219Z,99665.97
2019-02-23T20:24:02.039Z,99660.09
2019-02-23T20:26:28.876Z,99665.37
2019-02-23T20:28:55.777Z,99666.66
2019-02-23T20:31:22.615Z,99661.98
2019-02-23T20:33:49.631Z,99669.42
2019-02-23T20:36:16.436Z,99670.59
2019-02-23T20:38:43.238Z,99671.38
2019-02-23T20:41:11.199Z,99676.52
2019-02-23T20:43:37.985Z,99674.14
2019-02-23T20:46:04.704Z,99669.80
2019-02-23T20:48:31.502Z,99670.94
2019-02-23T20:51:00.580Z,99677.55
2019-02-23T20:53:27.409Z,99679.17
2019-02-23T20:56:00.912Z,99680.16
2019-02-23T20:58:27.889Z,99678.12
2019-02-23T21:00:54.697Z,99668.64
2019-02-23T21:03:21.556Z,99670.27
2019-02-23T21:05:56.413Z,99670.41
2019-02-23T21:08:23.349Z,99671.54
2019-02-23T21:10:50.067Z,99672.67
2019-02-23T21:13:16.930Z,99671.14
2019-02-23T21:15:43.688Z,99677.10
2019-02-23T21:18:11.859Z,99669.06
2019-02-23T21:20:38.739Z,99672.02
2019-02-23T21:23:06.448Z,99673.83
2019-02-23T21:25:33.364Z,99673.63
2019-02-23T21:28:00.294Z,99676.62
2019-02-23T21:30:27.813Z,99677.11
2019-02-23T21:32:54.927Z,99678.88
2019-02-23T21:35:21.616Z,99674.67
2019-02-23T21:37:48.411Z,99670.48
2019-02-23T21:40:21.423Z,99671.47
2019-02-23T21:42:50.315Z,99672.16
2019-02-23T21:45:20.206Z,99677.91
2019-02-23T21:47:47.032Z,99675.89
2019-02-23T21:50:13.959Z,99680.52
2019-02-23T21:52:42.091Z,99679.81
2019-02-23T21:55:10.244Z,99677.02
2019-02-23T21:57:37.222Z,99677.84
2019-02-23T22:00:04.726Z,99672.87
2019-02-23T22:02:32.575Z,99674.64
2019-02-23T22:04:59.310Z,99675.80
2019-02-23T22:07:26.094Z,99675.45
2019-02-23T22:09:52.885Z,99680.56
2019-02-23T22:12:19.632Z,99680.36
2019-02-23T22:14:46.477Z,99684.00
2019-02-23T22:17:13.312Z,99687.92
2019-02-23T22:19:40.124Z,99699.69
2019-02-23T22:22:06.895Z,99695.35
2019-02-23T22:24:33.729Z,99695.98
2019-02-23T22:27:00.509Z,99702.08
2019-02-23T22:29:27.228Z,99704.53
2019-02-23T22:31:54.093Z,99704.00
2019-02-23T22:34:20.823Z,99699.80
2019-02-23T22:36:47.611Z,99690.77
2019-02-23T22:39:14.460Z,99692.95
2019-02-23T22:41:49.451Z,99689.09
2019-02-23T22:44:10.050Z,99678.39
2019-02-23T22:46:36.907Z,99679.72
2019-02-23T22:49:03.913Z,99675.17
2019-02-23T22:51:30.735Z,99670.84
2019-02-23T22:53:57.493Z,99663.77
2019-02-23T22:56:24.305Z,99662.02
2019-02-23T22:58:51.296Z,99666.99
2019-02-23T23:01:18.859Z,99662.16
2019-02-23T23:03:45.549Z,99664.75
2019-02-23T23:06:12.351Z,99664.41
2019-02-23T23:08:39.100Z,99656.43
2019-02-23T23:11:05.786Z,99659.89
2019-02-23T23:13:32.700Z,99655.55
2019-02-23T23:15:59.429Z,99659.33
2019-02-23T23:18:26.388Z,99655.97
2019-02-23T23:20:53.135Z,99660.09
2019-02-23T23:23:19.817Z,99650.94
2019-02-23T23:25:46.716Z,99658.21
2019-02-23T23:28:13.524Z,99661.01
2019-02-23T23:30:40.383Z,99666.95
2019-02-23T23:33:07.164Z,99661.15
2019-02-23T23:35:33.931Z,99661.01
2019-02-23T23:38:04.108Z,99661.01
2019-02-23T23:40:30.900Z,99661.50
2019-02-23T23:42:58.404Z,99665.97
2019-02-23T23:45:25.205Z,99657.44
2019-02-23T23:47:52.015Z,99662.76
2019-02-23T23:50:18.845Z,99655.34
2019-02-23T23:52:45.664Z,99655.97
2019-02-23T23:55:12.407Z,99661.29
2019-02-23T23:57:39.193Z,99652.27
